Time;durP1;ratioP1;P1;durP2;ratioP2;P2;SDS_P1;SDS_P2;PMS_P1;PMS_P2;Temp;Humidity;BMP_temperature;BMP_pressure;BME280_temperature;BME280_humidity;BME280_pressure;Samples;Min_cycle;Max_cycle;Signal;HPM_P1;HPM_P2
2023/12/18 00:01:14;;;;;;;15.93;9.68;;;;;;;5.27;59.18;100879.75;5109585;28;20067;-68
2023/12/18 00:03:41;;;;;;;11.43;8.27;;;;;;;5.25;59.15;100878.03;5109641;28;20051;-68
2023/12/18 00:06:08;;;;;;;12.82;8.75;;;;;;;5.19;59.20;100871.06;5109571;28;20109;-68
2023/12/18 00:08:35;;;;;;;10.30;7.85;;;;;;;5.04;59.27;100842.31;5109725;28;20039;-68
2023/12/18 00:11:02;;;;;;;10.77;8.80;;;;;;;5.17;59.01;100866.72;5109189;28;20044;-67
2023/12/18 00:13:28;;;;;;;9.80;8.40;;;;;;;5.13;59.05;100863.25;5109546;28;20059;-68
2023/12/18 00:15:55;;;;;;;11.38;8.15;;;;;;;5.09;59.08;100869.41;5109392;28;20235;-67
2023/12/18 00:18:22;;;;;;;10.98;8.10;;;;;;;5.09;59.09;100877.28;5109583;28;20044;-68
2023/12/18 00:20:50;;;;;;;11.55;8.77;;;;;;;5.06;59.22;100878.19;5109313;28;20051;-67
2023/12/18 00:23:18;;;;;;;12.48;8.98;;;;;;;5.06;59.59;100875.56;5109264;28;20044;-68
2023/12/18 00:25:44;;;;;;;12.55;8.60;;;;;;;5.07;59.25;100868.56;5108933;28;20094;-68
2023/12/18 00:28:11;;;;;;;10.68;7.85;;;;;;;4.74;59.39;100812.75;5109331;28;20052;-68
2023/12/18 00:30:37;;;;;;;11.50;8.70;;;;;;;5.02;59.76;100865.97;5109098;28;20040;-68
2023/12/18 00:33:05;;;;;;;12.25;9.38;;;;;;;5.05;60.04;100865.94;5109072;28;20055;-68
2023/12/18 00:35:31;;;;;;;14.65;10.10;;;;;;;5.09;60.07;100866.78;5108770;28;20230;-67
2023/12/18 00:37:58;;;;;;;13.30;9.25;;;;;;;5.06;60.47;100862.44;5108958;28;20054;-67
2023/12/18 00:40:26;;;;;;;13.80;10.98;;;;;;;5.05;60.84;100855.44;5109475;28;20203;-68
2023/12/18 00:42:53;;;;;;;14.38;10.85;;;;;;;5.07;61.13;100861.53;5109098;28;20055;-67
2023/12/18 00:45:19;;;;;;;16.35;11.55;;;;;;;5.07;61.16;100864.16;5108522;28;20089;-67
2023/12/18 00:47:46;;;;;;;16.13;11.60;;;;;;;4.91;61.22;100840.66;5108411;28;20044;-67
2023/12/18 00:50:13;;;;;;;13.40;10.70;;;;;;;5.06;61.46;100856.31;5108743;28;20052;-67
2023/12/18 00:52:39;;;;;;;13.90;10.93;;;;;;;5.08;61.38;100867.66;5107458;28;20043;-67
2023/12/18 00:55:07;;;;;;;15.25;11.02;;;;;;;5.02;62.07;100867.72;5108072;28;20307;-68
2023/12/18 00:57:35;;;;;;;15.07;10.77;;;;;;;5.05;61.69;100863.31;5108385;28;20044;-67
2023/12/18 01:00:02;;;;;;;14.40;11.23;;;;;;;5.03;61.84;100864.22;5108220;28;20300;-68
2023/12/18 01:02:30;;;;;;;15.10;11.65;;;;;;;5.02;62.29;100862.47;5107421;28;20357;-67
2023/12/18 01:04:57;;;;;;;21.45;12.85;;;;;;;5.04;62.48;100866.81;5108440;28;20051;-67
2023/12/18 01:07:24;;;;;;;16.60;12.00;;;;;;;5.05;62.40;100867.69;5108435;28;20044;-67
2023/12/18 01:09:51;;;;;;;15.30;11.95;;;;;;;4.79;62.97;100839.84;5108019;28;20103;-67
2023/12/18 01:12:17;;;;;;;15.48;11.55;;;;;;;4.99;63.03;100870.38;5108061;28;20064;-68
2023/12/18 01:14:46;;;;;;;16.80;12.10;;;;;;;4.98;62.81;100879.16;5108244;28;20043;-68
2023/12/18 01:17:12;;;;;;;13.65;11.35;;;;;;;4.93;63.44;100873.06;5108241;28;20036;-67
2023/12/18 01:19:39;;;;;;;18.45;12.35;;;;;;;4.91;63.62;100870.44;5108174;28;20115;-68
2023/12/18 01:22:06;;;;;;;13.73;11.45;;;;;;;4.93;63.79;100867.81;5108147;28;20050;-67
2023/12/18 01:24:33;;;;;;;14.85;12.48;;;;;;;4.91;63.71;100865.19;5108114;28;20145;-68
2023/12/18 01:26:59;;;;;;;13.15;11.07;;;;;;;4.92;63.88;100864.31;5107705;28;20085;-68
2023/12/18 01:29:26;;;;;;;17.10;11.57;;;;;;;4.90;64.26;100859.94;5107929;28;20063;-68
2023/12/18 01:31:54;;;;;;;13.07;10.73;;;;;;;4.92;63.95;100861.69;5107945;28;20044;-68
2023/12/18 01:34:21;;;;;;;14.10;11.07;;;;;;;4.90;63.99;100859.94;5107928;28;20052;-68
2023/12/18 01:36:47;;;;;;;14.85;11.02;;;;;;;4.89;64.23;100860.78;5107571;28;20364;-67
2023/12/18 01:39:14;;;;;;;14.35;11.55;;;;;;;4.88;63.89;100856.41;5108099;28;20051;-68
2023/12/18 01:41:41;;;;;;;14.23;10.68;;;;;;;4.87;63.59;100850.31;5107974;28;20047;-67
2023/12/18 01:44:08;;;;;;;15.15;11.20;;;;;;;4.79;64.25;100842.47;5107752;28;20055;-68
2023/12/18 01:46:36;;;;;;;17.60;12.00;;;;;;;4.87;63.91;100841.53;5107621;28;20044;-67
2023/12/18 01:49:04;;;;;;;11.90;10.65;;;;;;;4.82;64.12;100841.59;5107511;28;20048;-67
2023/12/18 01:51:31;;;;;;;16.08;11.13;;;;;;;4.74;63.95;100827.63;5107821;28;20243;-68
2023/12/18 01:53:59;;;;;;;15.18;11.60;;;;;;;4.75;64.52;100850.41;5107297;28;20089;-67
2023/12/18 01:56:30;;;;;;;12.55;10.30;;;;;;;4.74;64.28;100851.28;5107172;28;20048;-67
2023/12/18 01:58:59;;;;;;;12.57;10.43;;;;;;;4.73;64.41;100846.91;5107383;28;20036;-67
2023/12/18 02:01:26;;;;;;;15.32;10.65;;;;;;;4.74;64.33;100843.41;5106230;28;20040;-67
2023/12/18 02:03:55;;;;;;;14.27;10.82;;;;;;;4.69;64.64;100835.56;5107004;28;20044;-67
2023/12/18 02:06:24;;;;;;;12.70;10.98;;;;;;;4.70;64.58;100836.44;5106796;28;20049;-68
2023/12/18 02:08:51;;;;;;;15.05;11.40;;;;;;;4.66;64.92;100830.31;5107451;28;20191;-67
2023/12/18 02:11:18;;;;;;;15.73;11.15;;;;;;;4.62;64.73;100827.75;5106698;28;20205;-67
2023/12/18 02:13:44;;;;;;;13.57;11.18;;;;;;;4.64;64.53;100824.22;5106714;28;20093;-68
2023/12/18 02:16:11;;;;;;;14.60;11.00;;;;;;;3.82;64.62;100714.53;5107129;28;20051;-68
2023/12/18 02:18:44;;;;;;;16.25;11.27;;;;;;;4.64;64.64;100824.22;5107022;28;20096;-68
2023/12/18 02:21:10;;;;;;;12.85;10.45;;;;;;;4.66;64.47;100818.94;5106636;28;20309;-68
2023/12/18 02:23:38;;;;;;;16.45;11.05;;;;;;;4.63;64.56;100825.09;5106998;28;20052;-68
2023/12/18 02:26:05;;;;;;;17.30;11.88;;;;;;;4.65;64.47;100823.34;5106894;28;20055;-68
2023/12/18 02:28:32;;;;;;;14.23;10.38;;;;;;;4.61;64.52;100823.38;5106761;28;20071;-68
2023/12/18 02:30:58;;;;;;;14.02;9.88;;;;;;;4.60;64.65;100833.00;5105415;28;20320;-68
2023/12/18 02:33:25;;;;;;;14.32;10.57;;;;;;;4.62;64.62;100825.09;5106737;28;20105;-68
2023/12/18 02:35:52;;;;;;;10.75;7.82;;;;;;;4.63;64.47;100825.09;5106458;28;20233;-67
2023/12/18 02:38:18;;;;;;;8.73;7.13;;;;;;;4.67;64.08;100820.69;5106707;28;20063;-67
2023/12/18 02:40:46;;;;;;;10.30;7.05;;;;;;;4.64;63.94;100824.22;5106339;28;20330;-68
2023/12/18 02:43:13;;;;;;;7.88;5.97;;;;;;;4.67;63.85;100810.19;5106567;28;20319;-67
2023/12/18 02:45:39;;;;;;;10.65;7.07;;;;;;;4.61;63.82;100807.63;5106527;28;20052;-68
2023/12/18 02:48:06;;;;;;;9.73;7.38;;;;;;;4.61;63.75;100810.25;5106498;28;20044;-68
2023/12/18 02:50:33;;;;;;;9.10;6.95;;;;;;;4.64;63.66;100813.72;5105266;28;20036;-68
2023/12/18 02:52:59;;;;;;;8.55;5.63;;;;;;;4.60;63.45;100804.13;5106141;28;20044;-68
2023/12/18 02:55:26;;;;;;;6.65;5.38;;;;;;;4.64;63.14;100803.22;5106619;28;20046;-68
2023/12/18 02:57:54;;;;;;;6.78;4.47;;;;;;;4.64;63.00;100804.97;5106270;28;20204;-68
2023/12/18 03:00:21;;;;;;;5.75;4.70;;;;;;;4.21;62.70;100721.28;5106112;28;20051;-68
2023/12/18 03:02:47;;;;;;;5.75;3.90;;;;;;;4.66;62.32;100803.19;5106518;28;20044;-68
2023/12/18 03:05:14;;;;;;;5.43;3.65;;;;;;;4.66;62.52;100808.44;5106255;28;20043;-68
2023/12/18 03:07:41;;;;;;;6.68;4.30;;;;;;;4.64;62.39;100804.97;5106178;28;20052;-67
2023/12/18 03:10:08;;;;;;;4.70;3.50;;;;;;;4.68;61.77;100798.81;5106370;28;20386;-67
2023/12/18 03:12:34;;;;;;;5.95;3.28;;;;;;;4.71;61.87;100797.03;5105721;28;20060;-67
2023/12/18 03:15:03;;;;;;;4.35;2.90;;;;;;;4.69;61.39;100792.66;5105809;28;20350;-67
2023/12/18 03:17:29;;;;;;;3.53;2.47;;;;;;;4.70;61.10;100791.78;5105184;28;20089;-68
2023/12/18 03:19:57;;;;;;;4.20;2.72;;;;;;;4.60;61.49;100763.84;5105738;28;20269;-69
2023/12/18 03:22:23;;;;;;;3.85;2.50;;;;;;;4.61;60.67;100782.22;5105978;28;20051;-67
2023/12/18 03:24:50;;;;;;;6.22;3.63;;;;;;;4.73;60.43;100803.13;5105910;28;20044;-68
2023/12/18 03:27:16;;;;;;;5.55;3.78;;;;;;;4.69;60.86;100798.78;5105898;28;20044;-67
2023/12/18 03:29:43;;;;;;;5.47;4.25;;;;;;;4.68;61.49;100791.78;5105815;28;20043;-68
2023/12/18 03:32:11;;;;;;;9.20;5.22;;;;;;;4.73;62.11;100792.63;5105853;28;20054;-68
2023/12/18 03:34:38;;;;;;;7.93;5.32;;;;;;;4.53;62.09;100760.41;5105577;28;20369;-68
2023/12/18 03:37:04;;;;;;;7.85;6.07;;;;;;;4.64;62.82;100784.81;5105864;28;20052;-68
2023/12/18 03:39:31;;;;;;;7.45;5.90;;;;;;;4.09;63.00;100695.13;5105858;28;20047;-68
2023/12/18 03:41:58;;;;;;;11.13;9.02;;;;;;;4.60;63.72;100798.00;5105764;28;20122;-68
2023/12/18 03:44:24;;;;;;;11.52;8.95;;;;;;;4.63;63.64;100788.34;5105484;28;20048;-68
2023/12/18 03:46:51;;;;;;;14.98;9.85;;;;;;;4.42;64.23;100763.13;5105461;28;20284;-69
2023/12/18 03:49:19;;;;;;;12.35;10.73;;;;;;;4.68;63.86;100794.41;5105645;28;20043;-68
2023/12/18 03:51:45;;;;;;;15.27;10.93;;;;;;;4.67;64.23;100789.19;5106005;28;20048;-68
2023/12/18 03:54:12;;;;;;;13.70;10.88;;;;;;;4.70;64.14;100797.03;5105619;28;20052;-68
2023/12/18 03:56:39;;;;;;;16.10;12.10;;;;;;;4.64;64.50;100790.06;5105651;28;20044;-68
2023/12/18 03:59:05;;;;;;;13.05;10.90;;;;;;;4.62;64.82;100797.09;5105911;28;20097;-69
2023/12/18 04:01:33;;;;;;;13.95;10.98;;;;;;;4.66;64.83;100793.56;5105384;28;20353;-69
2023/12/18 04:04:00;;;;;;;13.25;10.57;;;;;;;4.62;64.95;100797.09;5105393;28;20036;-68
2023/12/18 04:06:28;;;;;;;12.65;10.57;;;;;;;4.64;64.90;100795.31;5105605;28;20093;-68
2023/12/18 04:08:54;;;;;;;12.50;10.05;;;;;;;4.60;65.20;100800.63;5105505;28;20074;-68
2023/12/18 04:11:21;;;;;;;12.77;11.38;;;;;;;4.64;65.13;100805.84;5105312;28;20101;-68
2023/12/18 04:13:48;;;;;;;15.23;12.18;;;;;;;4.60;65.35;100801.50;5104262;28;20177;-68
2023/12/18 04:16:14;;;;;;;14.98;12.48;;;;;;;4.60;65.13;100795.38;5105577;28;20156;-68
2023/12/18 04:18:41;;;;;;;16.77;12.35;;;;;;;4.58;65.43;100799.75;5105827;28;20052;-68
2023/12/18 04:21:08;;;;;;;15.68;11.73;;;;;;;4.54;65.53;100795.41;5105122;28;20145;-68
2023/12/18 04:23:36;;;;;;;14.23;11.63;;;;;;;4.53;65.46;100799.78;5105375;28;20044;-68
2023/12/18 04:26:02;;;;;;;14.40;11.85;;;;;;;4.50;65.88;100799.81;5105629;28;20044;-67
2023/12/18 04:28:29;;;;;;;15.60;12.27;;;;;;;4.53;65.73;100804.19;5107703;28;20069;-68
2023/12/18 04:30:55;;;;;;;13.77;11.27;;;;;;;4.52;65.70;100802.44;5109033;28;20054;-68
2023/12/18 04:33:22;;;;;;;14.07;10.82;;;;;;;4.52;65.68;100807.69;5107992;28;20044;-68
2023/12/18 04:35:49;;;;;;;14.27;11.13;;;;;;;4.51;65.83;100814.69;5108788;28;20047;-68
2023/12/18 04:38:16;;;;;;;15.57;11.23;;;;;;;4.49;66.12;100811.19;5109079;28;20176;-68
2023/12/18 04:40:44;;;;;;;14.73;12.27;;;;;;;4.51;66.06;100813.81;5108965;28;20040;-68
2023/12/18 04:43:11;;;;;;;13.98;11.25;;;;;;;4.43;66.28;100811.25;5108570;28;20052;-68
2023/12/18 04:45:38;;;;;;;13.90;11.98;;;;;;;4.40;66.44;100813.91;5108893;28;20044;-68
2023/12/18 04:48:05;;;;;;;15.18;11.52;;;;;;;4.42;66.81;100804.25;5109163;28;20044;-68
2023/12/18 04:50:32;;;;;;;14.40;10.75;;;;;;;4.39;66.26;100809.53;5108744;28;20040;-68
2023/12/18 04:52:58;;;;;;;11.05;9.50;;;;;;;4.45;66.02;100809.47;5108441;28;20334;-68
2023/12/18 04:55:25;;;;;;;11.45;9.27;;;;;;;4.40;65.95;100801.63;5108689;28;20055;-68
2023/12/18 04:57:53;;;;;;;11.65;8.57;;;;;;;4.44;65.52;100795.47;5108326;28;20212;-69
2023/12/18 05:00:19;;;;;;;8.35;7.20;;;;;;;4.43;65.26;100792.88;5108537;28;20040;-68
2023/12/18 05:02:46;;;;;;;7.60;6.65;;;;;;;4.45;64.83;100794.59;5107389;28;20101;-69
2023/12/18 05:05:13;;;;;;;7.30;5.75;;;;;;;4.50;64.25;100799.81;5108776;28;20288;-68
2023/12/18 05:07:40;;;;;;;7.70;5.10;;;;;;;4.53;63.56;100793.66;5108356;28;20181;-69
2023/12/18 05:10:07;;;;;;;6.90;5.50;;;;;;;4.50;63.09;100791.94;5108294;28;20039;-69
2023/12/18 05:12:34;;;;;;;7.13;5.28;;;;;;;4.28;63.96;100759.72;5108243;28;20109;-69
2023/12/18 05:15:02;;;;;;;5.88;4.68;;;;;;;4.34;63.64;100757.06;5108239;28;20067;-69
2023/12/18 05:17:29;;;;;;;8.30;5.07;;;;;;;4.50;63.31;100789.31;5108169;28;20047;-69
2023/12/18 05:19:55;;;;;;;10.00;5.47;;;;;;;4.54;63.65;100788.41;5108149;28;20059;-69
2023/12/18 05:22:22;;;;;;;9.25;7.55;;;;;;;4.55;63.72;100790.16;5108978;28;20044;-68
2023/12/18 05:24:48;;;;;;;7.65;6.13;;;;;;;4.56;63.66;100781.41;5108156;28;20055;-68
2023/12/18 05:27:17;;;;;;;7.88;6.55;;;;;;;4.59;63.41;100794.50;5107943;28;20052;-68
2023/12/18 05:29:44;;;;;;;8.82;5.95;;;;;;;4.59;62.66;100797.13;5107900;28;20044;-68
2023/12/18 05:32:12;;;;;;;6.68;4.28;;;;;;;4.62;62.10;100786.59;5107817;28;20051;-68
2023/12/18 05:34:38;;;;;;;7.18;4.18;;;;;;;4.70;62.73;100790.03;5107843;28;20215;-68
2023/12/18 05:37:05;;;;;;;5.40;3.90;;;;;;;4.66;62.50;100788.31;5108096;28;20044;-68
2023/12/18 05:39:31;;;;;;;7.38;4.35;;;;;;;4.67;61.77;100792.69;5107481;28;20093;-69
2023/12/18 05:41:58;;;;;;;5.22;3.63;;;;;;;4.69;61.98;100782.16;5107517;28;20074;-68
2023/12/18 05:44:25;;;;;;;3.75;2.83;;;;;;;4.71;61.49;100780.41;5107751;28;20044;-68
2023/12/18 05:46:51;;;;;;;3.92;2.80;;;;;;;4.75;61.76;100788.22;5107396;28;20085;-68
2023/12/18 05:49:19;;;;;;;4.22;2.88;;;;;;;4.75;61.01;100782.97;5107491;28;20047;-68
2023/12/18 05:51:46;;;;;;;5.28;3.58;;;;;;;4.72;61.15;100777.75;5107219;28;20044;-69
2023/12/18 05:54:13;;;;;;;6.30;3.45;;;;;;;4.75;61.33;100780.34;5107539;28;20040;-69
2023/12/18 05:56:39;;;;;;;3.72;3.20;;;;;;;4.78;61.30;100775.06;5107216;28;20066;-69
2023/12/18 05:59:06;;;;;;;4.38;2.83;;;;;;;4.80;61.49;100773.31;5106961;28;20043;-68
2023/12/18 06:01:33;;;;;;;4.03;2.97;;;;;;;4.84;61.10;100773.28;5107082;28;20085;-68
2023/12/18 06:03:59;;;;;;;3.28;2.30;;;;;;;4.88;61.10;100767.97;5106106;28;20234;-68
2023/12/18 06:06:29;;;;;;;4.05;2.67;;;;;;;4.71;61.05;100744.50;5107126;28;20044;-68
2023/12/18 06:08:56;;;;;;;3.72;2.80;;;;;;;4.77;60.60;100749.69;5106932;28;20177;-69
2023/12/18 06:11:22;;;;;;;3.67;2.30;;;;;;;4.98;60.95;100772.28;5107059;28;20115;-68
2023/12/18 06:13:49;;;;;;;3.80;2.33;;;;;;;5.02;60.74;100771.38;5106669;28;20116;-68
2023/12/18 06:16:16;;;;;;;4.60;2.50;;;;;;;5.04;60.56;100776.59;5106822;28;20108;-68
2023/12/18 06:18:42;;;;;;;3.72;2.90;;;;;;;5.09;60.44;100766.91;5106966;28;20052;-68
2023/12/18 06:21:09;;;;;;;3.72;2.60;;;;;;;5.11;60.56;100776.53;5107176;28;20088;-68
2023/12/18 06:23:37;;;;;;;3.72;2.47;;;;;;;4.91;60.37;100728.56;5106982;28;20051;-68
2023/12/18 06:26:06;;;;;;;3.25;2.10;;;;;;;5.18;60.21;100774.72;5106517;28;20312;-68
2023/12/18 06:28:33;;;;;;;2.38;1.77;;;;;;;5.21;60.05;100774.69;5106871;28;20044;-69
2023/12/18 06:31:00;;;;;;;3.13;2.20;;;;;;;5.26;60.16;100767.63;5106952;28;20040;-68
2023/12/18 06:33:26;;;;;;;2.70;2.10;;;;;;;5.31;59.60;100773.69;5106879;28;20052;-68
2023/12/18 06:35:53;;;;;;;3.50;2.05;;;;;;;5.38;59.47;100770.09;5106930;28;20051;-69
2023/12/18 06:38:19;;;;;;;3.13;2.03;;;;;;;5.39;58.83;100773.59;5105826;28;20093;-69
2023/12/18 06:40:47;;;;;;;5.53;2.50;;;;;;;5.45;58.98;100779.66;5106238;28;20048;-69
2023/12/18 06:43:14;;;;;;;2.78;2.00;;;;;;;5.53;58.72;100774.31;5106581;28;20051;-69
2023/12/18 06:45:41;;;;;;;3.33;2.05;;;;;;;5.56;58.48;100784.78;5106434;28;20036;-68
2023/12/18 06:48:07;;;;;;;3.10;2.10;;;;;;;5.59;58.66;100782.13;5106619;28;20192;-69
2023/12/18 06:50:34;;;;;;;4.18;2.60;;;;;;;5.64;58.48;100776.81;5106237;28;20047;-69
2023/12/18 06:53:02;;;;;;;5.15;3.95;;;;;;;5.55;58.60;100775.16;5105557;28;20307;-68
2023/12/18 06:55:28;;;;;;;6.63;5.38;;;;;;;5.55;59.05;100788.31;5106370;28;20191;-68
2023/12/18 06:57:56;;;;;;;6.90;5.22;;;;;;;5.49;58.79;100782.25;5106061;28;20284;-69
2023/12/18 07:00:23;;;;;;;7.10;5.88;;;;;;;5.47;58.30;100784.03;5106264;28;20051;-68
2023/12/18 07:02:50;;;;;;;8.05;5.75;;;;;;;5.47;58.34;100784.03;5106518;28;20086;-68
2023/12/18 07:05:16;;;;;;;6.88;5.00;;;;;;;5.50;58.11;100789.25;5105807;28;20040;-68
2023/12/18 07:07:43;;;;;;;5.65;4.72;;;;;;;5.52;58.56;100792.75;5106055;28;20044;-68
2023/12/18 07:10:10;;;;;;;5.55;3.63;;;;;;;4.67;57.97;100653.50;5105677;28;20107;-69
2023/12/18 07:12:37;;;;;;;5.97;4.32;;;;;;;5.03;58.32;100711.81;5105491;28;20067;-69
2023/12/18 07:15:07;;;;;;;5.70;4.30;;;;;;;5.58;58.19;100797.94;5105771;28;20051;-68
2023/12/18 07:17:34;;;;;;;5.78;4.28;;;;;;;5.62;58.23;100805.75;5105911;28;20048;-69
2023/12/18 07:20:00;;;;;;;5.50;3.90;;;;;;;5.62;57.84;100800.50;5106289;28;20052;-68
2023/12/18 07:22:27;;;;;;;4.60;3.50;;;;;;;5.63;58.10;100801.38;5106017;28;20044;-68
2023/12/18 07:24:53;;;;;;;5.80;4.47;;;;;;;5.62;58.09;100804.88;5105902;28;20299;-68
2023/12/18 07:27:20;;;;;;;4.93;3.05;;;;;;;5.64;58.13;100806.63;5105832;28;20043;-68
2023/12/18 07:29:47;;;;;;;4.30;3.13;;;;;;;5.67;57.44;100808.34;5105920;28;20043;-68
2023/12/18 07:32:15;;;;;;;3.58;2.95;;;;;;;5.70;57.78;100808.31;5105915;28;20108;-68
2023/12/18 07:34:42;;;;;;;3.97;3.25;;;;;;;5.71;57.34;100812.66;5106580;28;20067;-68
2023/12/18 07:37:08;;;;;;;5.03;2.80;;;;;;;5.77;57.64;100813.47;5105763;28;20085;-69
2023/12/18 07:39:35;;;;;;;3.60;2.47;;;;;;;5.75;56.80;100819.63;5106171;28;20113;-68
2023/12/18 07:42:02;;;;;;;4.22;2.45;;;;;;;5.63;57.81;100780.31;5105698;28;20036;-68
2023/12/18 07:44:28;;;;;;;3.42;2.30;;;;;;;5.69;57.59;100777.63;5105879;28;20036;-68
2023/12/18 07:46:55;;;;;;;4.57;2.75;;;;;;;5.97;57.04;100814.97;5106046;28;20055;-68
2023/12/18 07:49:24;;;;;;;4.35;2.67;;;;;;;6.05;56.86;100813.97;5105388;28;20086;-69
2023/12/18 07:51:50;;;;;;;3.95;2.83;;;;;;;6.04;57.07;100819.25;5105424;28;20044;-69
2023/12/18 07:54:17;;;;;;;3.78;2.42;;;;;;;6.25;57.02;100815.47;5105670;28;20051;-69
2023/12/18 07:56:44;;;;;;;4.80;3.08;;;;;;;5.82;56.45;100718.69;5105380;28;20039;-69
2023/12/18 07:59:13;;;;;;;3.28;2.40;;;;;;;6.23;56.60;100743.53;5105262;28;20296;-69
2023/12/18 08:01:40;;;;;;;5.30;2.97;;;;;;;6.73;56.06;100800.66;5105683;28;20079;-69
2023/12/18 08:04:06;;;;;;;4.03;2.58;;;;;;;6.83;55.11;100796.13;5109211;28;20043;-69
2023/12/18 08:06:34;;;;;;;6.00;3.00;;;;;;;6.92;55.61;100809.16;5109612;28;20234;-70
2023/12/18 08:09:01;;;;;;;5.70;3.15;;;;;;;6.95;55.65;100764.31;5109500;28;20078;-69
2023/12/18 08:11:28;;;;;;;3.97;2.50;;;;;;;7.29;55.68;100794.41;5109194;28;20296;-69
2023/12/18 08:13:55;;;;;;;5.07;3.25;;;;;;;7.47;54.78;100787.09;5109438;28;20089;-69
2023/12/18 08:16:23;;;;;;;6.38;3.35;;;;;;;7.57;53.84;100786.00;5109420;28;20052;-69
2023/12/18 08:18:49;;;;;;;5.85;3.83;;;;;;;6.87;53.39;100672.19;5108919;28;20195;-69
2023/12/18 08:21:16;;;;;;;7.07;3.92;;;;;;;7.73;52.91;100776.00;5109143;28;20044;-69
2023/12/18 08:23:45;;;;;;;6.18;3.72;;;;;;;7.88;52.70;100773.91;5108426;28;20043;-69
2023/12/18 08:26:11;;;;;;;5.22;3.83;;;;;;;8.04;52.59;100769.16;5108861;28;20067;-69
2023/12/18 08:28:41;;;;;;;4.97;2.92;;;;;;;8.05;53.35;100730.41;5109714;28;20044;-69
2023/12/18 08:31:08;;;;;;;3.85;2.50;;;;;;;8.22;52.36;100762.59;5109273;28;20048;-69
2023/12/18 08:33:34;;;;;;;4.65;3.20;;;;;;;8.35;51.90;100756.97;5109278;28;20044;-69
2023/12/18 08:36:01;;;;;;;5.32;2.90;;;;;;;8.33;51.71;100729.72;5108915;28;20044;-69
2023/12/18 08:38:29;;;;;;;7.78;3.33;;;;;;;8.57;52.26;100757.31;5108990;28;20216;-69
2023/12/18 08:40:57;;;;;;;4.53;2.83;;;;;;;8.71;52.23;100758.75;5109169;28;20040;-69
2023/12/18 08:43:23;;;;;;;3.58;2.70;;;;;;;8.80;51.77;100761.16;5108677;28;20128;-69
2023/12/18 08:45:50;;;;;;;3.53;2.20;;;;;;;9.07;51.40;100764.84;5108232;28;20051;-69
2023/12/18 08:48:17;;;;;;;8.63;2.63;;;;;;;9.14;51.17;100754.06;5108660;28;20082;-70
2023/12/18 08:50:44;;;;;;;3.30;2.10;;;;;;;9.28;50.59;100754.59;5108601;28;20055;-69
2023/12/18 08:53:11;;;;;;;3.75;1.85;;;;;;;9.34;49.93;100719.16;5108594;28;20150;-69
2023/12/18 08:55:39;;;;;;;3.83;2.40;;;;;;;9.71;50.03;100745.47;5108324;28;20354;-69
2023/12/18 08:58:07;;;;;;;3.78;2.20;;;;;;;9.83;49.63;100737.16;5108583;28;20085;-70
2023/12/18 09:00:34;;;;;;;3.75;2.30;;;;;;;9.97;49.34;100728.78;5108811;28;20052;-70
2023/12/18 09:03:01;;;;;;;4.32;2.47;;;;;;;9.93;49.12;100701.53;5108306;28;20054;-69
2023/12/18 09:05:28;;;;;;;5.47;3.05;;;;;;;10.33;48.96;100724.09;5108149;28;20064;-68
2023/12/18 09:07:55;;;;;;;5.07;3.38;;;;;;;10.30;48.22;100728.63;5108122;28;20051;-68
2023/12/18 09:10:22;;;;;;;5.25;3.00;;;;;;;10.33;47.67;100731.19;5107051;28;20073;-68
2023/12/18 09:12:49;;;;;;;4.30;2.30;;;;;;;10.55;47.80;100727.78;5107745;28;20063;-69
2023/12/18 09:15:17;;;;;;;6.22;3.22;;;;;;;10.57;47.28;100686.19;5106021;28;20048;-69
2023/12/18 09:17:44;;;;;;;11.05;3.20;;;;;;;10.90;46.79;100733.72;5108002;28;20044;-69
2023/12/18 09:20:11;;;;;;;3.78;1.70;;;;;;;11.06;46.05;100713.69;5108029;28;20089;-69
2023/12/18 09:22:38;;;;;;;4.15;2.00;;;;;;;11.29;45.99;100709.31;5107687;28;20047;-69
2023/12/18 09:25:05;;;;;;;2.88;1.85;;;;;;;11.29;45.91;100727.91;5107874;28;20284;-69
2023/12/18 09:27:32;;;;;;;2.63;1.80;;;;;;;11.36;45.26;100706.41;5108301;28;20219;-69
2023/12/18 09:29:59;;;;;;;3.60;2.38;;;;;;;11.38;44.86;100711.66;5107902;28;20072;-68
2023/12/18 09:32:27;;;;;;;2.65;1.63;;;;;;;11.48;45.07;100782.06;5107892;28;20048;-69
2023/12/18 09:34:54;;;;;;;2.60;1.52;;;;;;;11.76;44.10;100718.16;5107673;28;20082;-69
2023/12/18 09:37:20;;;;;;;3.15;2.08;;;;;;;11.80;44.16;100704.72;5107555;28;20331;-69
2023/12/18 09:39:47;;;;;;;4.70;2.67;;;;;;;11.92;43.55;100673.28;5107493;28;20044;-69
2023/12/18 09:42:14;;;;;;;3.35;2.28;;;;;;;12.15;43.73;100710.44;5107705;28;20036;-69
2023/12/18 09:44:42;;;;;;;2.78;1.88;;;;;;;12.16;42.63;100697.13;5107677;28;20062;-69
2023/12/18 09:47:08;;;;;;;4.97;2.25;;;;;;;12.36;42.30;100698.97;5107542;28;20203;-69
2023/12/18 09:49:37;;;;;;;3.78;2.13;;;;;;;12.43;42.17;100687.16;5107724;28;20115;-69
2023/12/18 09:52:08;;;;;;;3.25;1.90;;;;;;;12.56;42.04;100694.63;5107567;28;20043;-69
2023/12/18 09:54:37;;;;;;;2.33;1.60;;;;;;;12.54;41.72;100680.53;5107077;28;20043;-69
2023/12/18 09:57:06;;;;;;;2.78;1.75;;;;;;;12.50;41.60;100650.53;5105921;28;20044;-69
2023/12/18 09:59:34;;;;;;;2.00;1.40;;;;;;;12.78;41.09;100663.53;5107624;28;20063;-69
2023/12/18 10:02:00;;;;;;;2.45;1.45;;;;;;;12.98;41.74;100665.31;5107245;28;20044;-69
2023/12/18 10:04:27;;;;;;;3.72;2.10;;;;;;;13.07;41.62;100670.22;5107001;28;20315;-69
2023/12/18 10:06:55;;;;;;;2.95;1.83;;;;;;;13.28;40.89;100660.41;5106950;28;20101;-69
2023/12/18 10:09:22;;;;;;;2.42;1.50;;;;;;;13.26;40.81;100654.28;5106015;28;20085;-69
2023/12/18 10:11:49;;;;;;;4.22;2.53;;;;;;;13.01;40.49;100631.44;5106692;28;20060;-69
2023/12/18 10:14:16;;;;;;;3.30;2.08;;;;;;;13.45;40.92;100650.72;5106625;28;20048;-69
2023/12/18 10:16:44;;;;;;;3.00;2.00;;;;;;;13.35;39.73;100630.75;5106622;28;20047;-69
2023/12/18 10:19:11;;;;;;;2.90;1.88;;;;;;;13.40;39.50;100647.38;5106558;28;20036;-69
2023/12/18 10:21:38;;;;;;;4.15;1.83;;;;;;;13.61;39.33;100650.88;5106713;28;20048;-69
2023/12/18 10:24:08;;;;;;;2.53;1.67;;;;;;;13.53;39.33;100650.38;5106805;28;20036;-70
2023/12/18 10:26:34;;;;;;;2.60;1.85;;;;;;;13.91;39.00;100645.88;5106673;28;20044;-69
2023/12/18 10:29:02;;;;;;;2.47;1.58;;;;;;;14.02;38.89;100646.22;5106643;28;20051;-70
2023/12/18 10:31:29;;;;;;;2.45;1.52;;;;;;;13.96;38.29;100622.53;5106424;28;20032;-69
2023/12/18 10:33:56;;;;;;;2.25;1.40;;;;;;;14.19;38.57;100655.19;5106689;28;20040;-69
2023/12/18 10:36:24;;;;;;;2.78;1.90;;;;;;;14.44;38.35;100647.69;5106530;28;20055;-69
2023/12/18 10:38:51;;;;;;;3.72;1.60;;;;;;;14.58;37.53;100649.69;5106900;28;20050;-69
2023/12/18 10:41:22;;;;;;;3.10;1.63;;;;;;;14.71;38.38;100640.16;5106877;28;20036;-69
2023/12/18 10:43:50;;;;;;;2.70;1.67;;;;;;;14.70;37.47;100635.75;5106646;28;20052;-69
2023/12/18 10:46:18;;;;;;;2.85;2.00;;;;;;;14.77;37.60;100630.97;5106495;28;20093;-69
2023/12/18 10:48:49;;;;;;;2.45;1.58;;;;;;;14.73;37.08;100604.44;5106334;28;20044;-69
2023/12/18 10:51:18;;;;;;;3.15;1.60;;;;;;;12.42;37.35;100174.13;5106170;28;20074;-70
2023/12/18 10:53:46;;;;;;;2.65;1.60;;;;;;;14.99;36.26;100627.06;5106322;28;20081;-70
2023/12/18 10:56:16;;;;;;;2.30;1.40;;;;;;;14.89;36.52;100593.81;5106648;28;20192;-70
2023/12/18 10:58:45;;;;;;;2.10;1.40;;;;;;;14.45;35.88;100529.41;5106253;28;20199;-70
2023/12/18 11:01:15;;;;;;;2.97;1.40;;;;;;;15.20;36.18;100626.88;5105941;28;20085;-70
2023/12/18 11:03:42;;;;;;;2.30;1.40;;;;;;;15.08;36.15;100593.69;5106188;28;20086;-70
2023/12/18 11:06:11;;;;;;;3.00;1.83;;;;;;;14.87;35.97;100523.63;5106111;28;20051;-70
2023/12/18 11:08:37;;;;;;;2.65;1.60;;;;;;;15.45;35.29;100613.91;5106117;28;20040;-70
2023/12/18 11:11:06;;;;;;;2.30;1.60;;;;;;;15.52;35.51;100607.25;5105997;28;20054;-70
2023/12/18 11:13:43;;;;;;;3.35;1.50;;;;;;;14.90;35.69;100544.81;5105502;28;20056;-71
2023/12/18 11:16:17;;;;;;;2.20;1.42;;;;;;;15.48;35.21;100613.72;5106015;28;20051;-70
2023/12/18 11:18:59;;;;;;;2.70;1.88;;;;;;;15.31;35.13;100593.28;5105926;28;20052;-70
2023/12/18 11:21:25;;;;;;;2.60;1.70;;;;;;;15.27;35.69;100586.38;5105954;28;20086;-70
2023/12/18 11:23:52;;;;;;;2.63;1.65;;;;;;;15.28;35.26;100593.44;5105602;28;20085;-70
2023/12/18 11:26:19;;;;;;;4.25;1.83;;;;;;;14.94;35.24;100558.84;5105866;28;20098;-71